Time;durP1;ratioP1;P1;durP2;ratioP2;P2;SDS_P1;SDS_P2;PMS_P1;PMS_P2;Temp;Humidity;BMP_temperature;BMP_pressure;BME280_temperature;BME280_humidity;BME280_pressure;Samples;Min_cycle;Max_cycle;Signal;HPM_P1;HPM_P2
2021/12/22 00:02:07;;;;;;;67.75;18.15;;;-6.30;99.90;;;;;;5000321;28;20022;-64
2021/12/22 00:04:39;;;;;;;44.13;19.08;;;-6.40;99.90;;;;;;5021129;28;20034;-64
2021/12/22 00:07:04;;;;;;;33.92;17.40;;;-6.40;99.90;;;;;;5007299;28;20027;-66
2021/12/22 00:09:30;;;;;;;34.25;16.40;;;-6.40;99.90;;;;;;5004349;28;20032;-66
2021/12/22 00:11:56;;;;;;;29.30;16.55;;;-6.50;99.90;;;;;;5007274;28;20018;-64
2021/12/22 00:14:21;;;;;;;32.38;17.65;;;-6.50;99.90;;;;;;5021512;28;20053;-64
2021/12/22 00:16:47;;;;;;;35.80;18.52;;;-6.60;99.90;;;;;;5006882;28;20037;-64
2021/12/22 00:19:12;;;;;;;32.67;18.20;;;-6.60;99.90;;;;;;5006127;28;20058;-68
2021/12/22 00:21:38;;;;;;;41.72;17.92;;;-6.60;99.90;;;;;;5004746;28;20057;-65
2021/12/22 00:24:04;;;;;;;42.03;17.75;;;-6.60;99.90;;;;;;5006277;28;20460;-64
2021/12/22 00:26:30;;;;;;;34.58;18.08;;;-6.70;99.90;;;;;;5008407;28;20029;-64
2021/12/22 00:28:56;;;;;;;40.92;18.40;;;-6.70;99.90;;;;;;5002871;28;20030;-64
2021/12/22 00:31:22;;;;;;;34.83;18.60;;;-6.80;99.90;;;;;;5003588;28;20057;-64
2021/12/22 00:33:50;;;;;;;44.58;19.73;;;-6.80;99.90;;;;;;5005114;28;20026;-64
2021/12/22 00:36:18;;;;;;;39.95;19.45;;;-6.80;99.90;;;;;;5005727;28;20473;-64
2021/12/22 00:38:45;;;;;;;34.00;18.25;;;-6.80;99.90;;;;;;5010215;28;20029;-63
2021/12/22 00:41:10;;;;;;;37.70;19.17;;;-6.80;99.90;;;;;;5005526;28;20069;-63
2021/12/22 00:43:36;;;;;;;35.63;16.88;;;-6.80;99.90;;;;;;5004050;28;20120;-64
2021/12/22 00:46:02;;;;;;;29.95;16.00;;;-6.80;99.90;;;;;;5011599;28;20049;-64
2021/12/22 00:48:28;;;;;;;35.92;17.42;;;-6.80;99.90;;;;;;5009494;28;20085;-65
2021/12/22 00:50:54;;;;;;;31.63;16.90;;;-6.80;99.90;;;;;;5007910;28;20037;-68
2021/12/22 00:53:19;;;;;;;27.17;15.95;;;-6.80;99.90;;;;;;5005010;28;20026;-62
2021/12/22 00:55:46;;;;;;;25.25;15.40;;;-6.80;99.90;;;;;;5006965;28;20121;-62
2021/12/22 00:58:12;;;;;;;30.92;16.88;;;-6.80;99.90;;;;;;5010702;28;20076;-61
2021/12/22 01:00:38;;;;;;;22.00;14.27;;;-6.90;99.90;;;;;;5007274;28;20030;-61
2021/12/22 01:03:04;;;;;;;27.52;14.73;;;-6.90;99.90;;;;;;5009581;28;20018;-62
2021/12/22 01:05:30;;;;;;;31.65;15.55;;;-7.00;99.90;;;;;;5005561;28;20046;-62
2021/12/22 01:07:55;;;;;;;22.73;14.18;;;-7.00;99.90;;;;;;5002665;28;20075;-62
2021/12/22 01:10:25;;;;;;;29.55;15.40;;;-7.10;99.90;;;;;;5010196;28;20034;-61
2021/12/22 01:12:53;;;;;;;23.08;13.73;;;-7.10;99.90;;;;;;5006455;28;20027;-62
2021/12/22 01:15:19;;;;;;;23.60;13.77;;;-7.00;99.90;;;;;;5002856;28;20437;-61
2021/12/22 01:17:48;;;;;;;29.80;15.43;;;-7.00;99.90;;;;;;5008244;28;20016;-61
2021/12/22 01:20:23;;;;;;;26.27;14.70;;;-7.00;99.90;;;;;;5009739;28;20671;-62
2021/12/22 01:22:50;;;;;;;24.98;14.95;;;-7.00;99.90;;;;;;5009939;28;20587;-62
2021/12/22 01:25:21;;;;;;;26.98;14.50;;;-7.00;99.90;;;;;;5007157;28;20030;-62
2021/12/22 01:27:47;;;;;;;;;;;-7.00;99.90;;;;;;5007372;28;20098;-61
2021/12/22 01:30:19;;;;;;;28.75;15.95;;;-7.00;99.90;;;;;;5006472;28;20004;-62
2021/12/22 01:32:45;;;;;;;27.60;15.07;;;-6.90;99.90;;;;;;5008589;28;20132;-61
2021/12/22 01:35:13;;;;;;;28.88;13.70;;;-6.90;99.90;;;;;;5012209;28;20030;-61
2021/12/22 01:37:39;;;;;;;25.48;14.57;;;-6.90;99.90;;;;;;5006628;28;20037;-61
2021/12/22 01:40:06;;;;;;;25.75;14.65;;;-7.00;99.90;;;;;;5010203;28;20034;-61
2021/12/22 01:42:32;;;;;;;23.63;15.07;;;-7.00;99.90;;;;;;5007896;28;20444;-61
2021/12/22 01:50:37;;;;;;;27.90;14.00;;;-7.10;99.90;;;;;;5006838;28;20774;-60
2021/12/22 01:53:26;;;;;;;;;;;-7.10;99.90;;;;;;5009475;28;20115;-61
2021/12/22 01:56:05;;;;;;;26.23;14.45;;;-7.10;99.90;;;;;;4998891;28;19921;-61
2021/12/22 01:58:41;;;;;;;23.23;13.93;;;-7.20;99.90;;;;;;5025954;28;20049;-60
2021/12/22 02:01:07;;;;;;;28.83;15.27;;;-7.20;99.90;;;;;;5007044;28;20022;-61
2021/12/22 02:03:33;;;;;;;27.92;13.20;;;-7.20;99.90;;;;;;5010223;28;20042;-60
2021/12/22 02:06:03;;;;;;;23.95;13.75;;;-7.20;99.90;;;;;;5007785;28;20451;-60
2021/12/22 02:08:28;;;;;;;24.33;13.95;;;-7.30;99.90;;;;;;5001084;28;20084;-60
2021/12/22 02:10:54;;;;;;;22.52;13.70;;;-7.30;99.90;;;;;;5005003;28;20030;-60
2021/12/22 02:13:27;;;;;;;26.40;14.07;;;-7.30;99.90;;;;;;5009749;28;20034;-60
2021/12/22 02:15:53;;;;;;;23.92;12.55;;;-7.30;99.90;;;;;;5008172;28;20514;-60
2021/12/22 02:18:20;;;;;;;18.75;12.60;;;-7.30;99.90;;;;;;5002999;28;20453;-60
2021/12/22 02:20:48;;;;;;;21.92;13.50;;;-7.30;99.90;;;;;;5003993;28;20027;-60
2021/12/22 02:23:14;;;;;;;22.80;12.70;;;-7.30;99.90;;;;;;5022304;28;20036;-60
2021/12/22 02:25:47;;;;;;;24.38;12.55;;;-7.30;99.90;;;;;;5008376;28;20437;-60
2021/12/22 02:28:20;;;;;;;26.00;14.02;;;-7.40;99.90;;;;;;5006790;28;20046;-60
2021/12/22 02:30:46;;;;;;;30.27;13.02;;;-7.40;99.90;;;;;;5008302;28;20421;-60
2021/12/22 02:35:43;;;;;;;21.42;13.25;;;-7.40;99.90;;;;;;5010485;28;20053;-60
2021/12/22 02:38:18;;;;;;;23.55;13.57;;;-7.30;99.90;;;;;;5007497;28;20440;-60
2021/12/22 02:40:47;;;;;;;24.25;13.50;;;-7.30;99.90;;;;;;5005723;28;20037;-60
2021/12/22 02:43:19;;;;;;;24.27;14.35;;;-7.30;99.90;;;;;;5007504;28;20075;-60
2021/12/22 02:45:45;;;;;;;27.25;14.15;;;-7.30;99.90;;;;;;5004111;28;20049;-60
2021/12/22 02:48:10;;;;;;;21.92;12.30;;;-7.30;99.90;;;;;;5007502;28;20061;-61
2021/12/22 02:50:36;;;;;;;17.58;12.98;;;-7.30;99.90;;;;;;5007570;28;20571;-60
2021/12/22 02:53:13;;;;;;;25.38;13.98;;;-7.30;99.90;;;;;;5017889;28;20037;-60
2021/12/22 02:58:50;;;;;;;23.33;13.38;;;-7.30;99.90;;;;;;5004771;28;20077;-60
2021/12/22 03:05:59;;;;;;;26.15;14.75;;;-7.40;99.90;;;;;;5003772;28;20057;-60
2021/12/22 03:08:24;;;;;;;25.17;14.57;;;-7.40;99.90;;;;;;5007203;28;20117;-60
2021/12/22 03:10:53;;;;;;;23.50;14.02;;;-7.40;99.90;;;;;;5006978;28;20033;-60
2021/12/22 03:13:20;;;;;;;25.60;14.88;;;-7.30;99.90;;;;;;5024521;28;20509;-60
2021/12/22 03:15:46;;;;;;;32.00;14.65;;;-7.30;99.90;;;;;;5008355;28;20029;-60
2021/12/22 03:18:12;;;;;;;28.73;14.98;;;-7.30;99.90;;;;;;5004293;28;20710;-60
2021/12/22 03:20:38;;;;;;;25.02;13.38;;;-7.30;99.90;;;;;;5005781;28;20025;-60
2021/12/22 03:23:04;;;;;;;28.67;15.35;;;-7.20;99.90;;;;;;5007329;28;20398;-60
2021/12/22 03:25:30;;;;;;;31.20;15.48;;;-7.20;99.90;;;;;;5003914;28;20030;-60
2021/12/22 03:28:01;;;;;;;27.67;14.02;;;-7.20;99.90;;;;;;5017110;28;20026;-60
2021/12/22 03:30:27;;;;;;;;;;;-7.20;99.90;;;;;;5008176;28;20025;-61
2021/12/22 03:32:53;;;;;;;24.30;14.35;;;-7.30;99.90;;;;;;5008502;28;20436;-61
2021/12/22 03:35:21;;;;;;;23.80;14.00;;;-7.30;99.90;;;;;;5006392;28;20038;-60
2021/12/22 03:37:53;;;;;;;21.67;12.55;;;-7.40;99.90;;;;;;5005958;28;20030;-60
2021/12/22 03:40:20;;;;;;;25.02;12.73;;;-7.40;99.90;;;;;;5007560;28;20026;-60
2021/12/22 03:42:47;;;;;;;26.58;13.13;;;-7.50;99.90;;;;;;5005406;28;20060;-60
2021/12/22 03:45:13;;;;;;;27.77;13.60;;;-7.50;99.90;;;;;;5006011;28;20072;-60
2021/12/22 03:47:39;;;;;;;23.60;13.40;;;-7.50;99.90;;;;;;5001541;28;20030;-60
2021/12/22 03:50:06;;;;;;;27.45;13.95;;;-7.50;99.90;;;;;;5005994;28;20048;-65
2021/12/22 03:52:32;;;;;;;28.77;12.68;;;-7.50;99.90;;;;;;5008413;28;20026;-62
2021/12/22 03:54:58;;;;;;;23.23;13.25;;;-7.50;99.90;;;;;;5006644;28;20030;-62
2021/12/22 03:57:24;;;;;;;27.45;13.40;;;-7.50;99.90;;;;;;5006172;28;20466;-62
2021/12/22 03:59:50;;;;;;;22.77;12.10;;;-7.60;99.90;;;;;;5005252;28;20060;-67
2021/12/22 04:02:19;;;;;;;26.67;12.75;;;-7.60;99.90;;;;;;5007327;28;20443;-62
2021/12/22 04:04:47;;;;;;;19.70;12.73;;;-7.60;99.90;;;;;;5004542;28;20026;-62
2021/12/22 04:07:13;;;;;;;22.95;12.15;;;-7.70;99.90;;;;;;5006793;28;20030;-65
2021/12/22 04:09:38;;;;;;;21.42;13.07;;;-7.70;99.90;;;;;;5004432;28;20425;-67
2021/12/22 04:12:04;;;;;;;21.50;11.98;;;-7.80;99.90;;;;;;5001521;28;20459;-62
2021/12/22 04:14:30;;;;;;;24.75;11.88;;;-7.80;99.90;;;;;;5005050;28;20025;-63
2021/12/22 04:16:56;;;;;;;26.35;11.93;;;-7.80;99.90;;;;;;5007244;28;20049;-62
2021/12/22 04:19:21;;;;;;;24.85;12.93;;;-7.80;99.90;;;;;;5004387;28;20059;-63
2021/12/22 04:21:49;;;;;;;24.20;13.02;;;-7.80;99.90;;;;;;5003296;28;20061;-66
2021/12/22 04:24:15;;;;;;;22.23;12.88;;;-7.80;99.90;;;;;;5004410;28;20512;-62
2021/12/22 04:26:40;;;;;;;21.02;11.93;;;-7.90;99.90;;;;;;5003481;28;20029;-62
2021/12/22 04:29:06;;;;;;;25.85;13.38;;;-7.90;99.90;;;;;;5007624;28;20367;-62
2021/12/22 04:31:32;;;;;;;21.95;12.27;;;-7.90;99.90;;;;;;5006558;28;20029;-65
2021/12/22 04:33:57;;;;;;;24.65;13.60;;;-7.90;99.90;;;;;;5005988;28;20022;-62
2021/12/22 04:36:23;;;;;;;28.27;13.20;;;-8.00;99.90;;;;;;5004509;28;20050;-63
2021/12/22 04:38:49;;;;;;;26.90;13.32;;;-8.00;99.90;;;;;;5006145;28;20108;-62
2021/12/22 04:41:14;;;;;;;23.58;11.88;;;-8.00;99.90;;;;;;5006733;28;20494;-62
2021/12/22 04:43:40;;;;;;;25.50;12.85;;;-8.10;99.90;;;;;;5003776;28;20049;-65
2021/12/22 04:46:06;;;;;;;25.45;14.15;;;-8.10;99.90;;;;;;5008607;28;20608;-62
2021/12/22 04:48:34;;;;;;;27.70;14.57;;;-8.10;99.90;;;;;;5004309;28;20081;-64
2021/12/22 04:51:00;;;;;;;29.05;16.10;;;-8.00;99.90;;;;;;5006323;28;20588;-62
2021/12/22 04:53:28;;;;;;;22.98;14.55;;;-8.10;99.90;;;;;;5005269;28;20035;-62
2021/12/22 04:55:54;;;;;;;33.28;15.52;;;-8.00;99.90;;;;;;5007070;28;20022;-62
2021/12/22 04:58:19;;;;;;;29.70;14.15;;;-8.10;99.90;;;;;;5002131;28;20033;-62
2021/12/22 05:00:45;;;;;;;28.20;14.55;;;-8.10;99.90;;;;;;5006619;28;20393;-63
2021/12/22 05:03:11;;;;;;;30.25;15.50;;;-8.10;99.90;;;;;;5005457;28;20029;-67
2021/12/22 05:05:37;;;;;;;22.10;13.45;;;-8.10;99.90;;;;;;5005310;28;20445;-62
2021/12/22 05:08:03;;;;;;;24.98;13.00;;;-8.20;99.90;;;;;;5004275;28;20026;-62
2021/12/22 05:10:29;;;;;;;25.05;14.23;;;-8.20;99.90;;;;;;5001183;28;20030;-62
2021/12/22 05:12:55;;;;;;;19.42;12.45;;;-8.20;99.90;;;;;;5005575;28;20037;-64
2021/12/22 05:15:23;;;;;;;24.13;12.77;;;-8.20;99.90;;;;;;5003982;28;20128;-62
2021/12/22 05:20:19;;;;;;;16.85;9.45;;;-8.30;99.90;;;;;;5004753;28;20090;-61
2021/12/22 05:22:45;;;;;;;19.27;13.10;;;-8.30;99.90;;;;;;5005016;28;20493;-62
2021/12/22 05:25:12;;;;;;;18.13;11.13;;;-8.30;99.90;;;;;;5006635;28;20037;-62
2021/12/22 05:27:38;;;;;;;25.90;13.70;;;-8.30;99.90;;;;;;5006217;28;20056;-60
2021/12/22 05:30:06;;;;;;;29.23;13.73;;;-8.30;99.90;;;;;;5007666;28;20025;-60
2021/12/22 05:32:33;;;;;;;22.17;13.38;;;-8.30;99.90;;;;;;5010492;28;20113;-60
2021/12/22 05:35:00;;;;;;;29.50;14.80;;;-8.40;99.90;;;;;;5009875;28;20087;-60
2021/12/22 05:37:26;;;;;;;18.30;11.85;;;-8.40;99.90;;;;;;5008107;28;20417;-60
2021/12/22 05:39:52;;;;;;;24.05;13.55;;;-8.40;99.90;;;;;;5008239;28;20038;-60
2021/12/22 05:42:21;;;;;;;27.35;13.32;;;-8.40;99.90;;;;;;5008134;28;20022;-60
2021/12/22 05:44:46;;;;;;;22.25;13.30;;;-8.40;99.90;;;;;;5009695;28;20026;-60
2021/12/22 05:47:12;;;;;;;27.75;13.02;;;-8.40;99.90;;;;;;5011014;28;20045;-60
2021/12/22 05:49:38;;;;;;;26.90;14.18;;;-8.40;99.90;;;;;;5007648;28;20410;-60
2021/12/22 05:52:04;;;;;;;23.85;14.73;;;-8.40;99.90;;;;;;5010604;28;20502;-60
2021/12/22 05:54:30;;;;;;;26.42;14.52;;;-8.40;99.90;;;;;;5007691;28;20062;-60
2021/12/22 05:56:56;;;;;;;21.48;12.68;;;-8.40;99.90;;;;;;5012289;28;20485;-60
2021/12/22 05:59:22;;;;;;;24.33;13.13;;;-8.40;99.90;;;;;;5009212;28;20093;-60
2021/12/22 06:01:48;;;;;;;23.30;13.60;;;-8.40;99.90;;;;;;5009666;28;20034;-60
2021/12/22 06:04:13;;;;;;;27.10;14.48;;;-8.40;99.90;;;;;;5004314;28;20490;-60
2021/12/22 06:06:39;;;;;;;23.17;14.18;;;-8.40;99.90;;;;;;5002849;28;20034;-60
2021/12/22 06:09:05;;;;;;;23.50;12.80;;;-8.40;99.90;;;;;;5009552;28;20026;-60
2021/12/22 06:11:31;;;;;;;25.63;13.18;;;-8.40;99.90;;;;;;5008276;28;20022;-60
2021/12/22 06:13:57;;;;;;;33.63;14.25;;;-8.40;99.90;;;;;;5008570;28;20026;-60
2021/12/22 06:16:24;;;;;;;27.65;14.27;;;-8.40;99.90;;;;;;5008178;28;20083;-60
2021/12/22 06:18:56;;;;;;;24.13;14.30;;;-8.40;99.90;;;;;;5006964;28;20046;-60
2021/12/22 06:21:22;;;;;;;30.63;13.68;;;-8.30;99.90;;;;;;5009308;28;20770;-60
2021/12/22 06:23:56;;;;;;;30.27;14.90;;;-8.30;99.90;;;;;;5008925;28;20080;-62
2021/12/22 06:26:23;;;;;;;27.58;14.57;;;-8.30;99.90;;;;;;5001697;28;20034;-62
2021/12/22 06:28:49;;;;;;;24.30;13.10;;;-8.30;99.90;;;;;;5008421;28;20259;-62
2021/12/22 06:31:14;;;;;;;30.02;14.25;;;-8.30;99.90;;;;;;5010022;28;20064;-62
2021/12/22 06:33:40;;;;;;;36.88;17.95;;;-8.30;99.90;;;;;;5013870;28;20030;-62
2021/12/22 06:36:06;;;;;;;31.58;15.43;;;-8.30;99.90;;;;;;5005705;28;20465;-64
2021/12/22 06:38:32;;;;;;;26.00;14.73;;;-8.20;99.90;;;;;;5003839;28;20029;-62
2021/12/22 06:40:59;;;;;;;30.17;14.98;;;-8.10;99.90;;;;;;5007549;28;20037;-64
2021/12/22 06:43:25;;;;;;;31.83;15.25;;;-8.10;99.90;;;;;;5009592;28;20092;-62
2021/12/22 06:45:50;;;;;;;22.77;12.20;;;-8.10;99.90;;;;;;5007669;28;20113;-62
2021/12/22 06:48:16;;;;;;;23.05;13.48;;;-8.10;99.90;;;;;;5007984;28;20018;-62
2021/12/22 06:50:42;;;;;;;59.58;19.55;;;-8.10;99.90;;;;;;5005125;28;20025;-64
2021/12/22 06:53:07;;;;;;;83.35;31.40;;;-8.10;99.90;;;;;;5008166;28;21598;-65
2021/12/22 06:55:33;;;;;;;28.85;15.07;;;-8.10;99.90;;;;;;5008647;28;20056;-63
2021/12/22 06:58:00;;;;;;;28.23;13.68;;;-8.10;99.90;;;;;;5006496;28;20381;-62
2021/12/22 07:00:25;;;;;;;23.30;13.82;;;-8.10;99.90;;;;;;5007023;28;20048;-62
2021/12/22 07:02:52;;;;;;;31.13;13.73;;;-8.20;99.90;;;;;;5005857;28;20478;-63
2021/12/22 07:05:19;;;;;;;23.92;12.73;;;-8.20;99.90;;;;;;5009652;28;20089;-66
2021/12/22 07:07:44;;;;;;;26.70;12.57;;;-8.20;99.90;;;;;;5008940;28;20030;-66
2021/12/22 07:10:11;;;;;;;22.92;12.27;;;-8.20;99.90;;;;;;5008896;28;20536;-64
2021/12/22 07:12:40;;;;;;;21.20;11.43;;;-8.20;99.90;;;;;;5023444;28;20089;-65
2021/12/22 07:15:09;;;;;;;16.80;11.50;;;-8.30;99.90;;;;;;5006199;28;20022;-62
2021/12/22 07:17:38;;;;;;;21.83;12.32;;;-8.30;99.90;;;;;;5007457;28;20022;-63
2021/12/22 07:20:05;;;;;;;18.63;11.80;;;-8.30;99.90;;;;;;5005431;28;20468;-62
2021/12/22 07:22:32;;;;;;;23.70;12.30;;;-8.30;99.90;;;;;;5021999;28;20042;-66
2021/12/22 07:24:57;;;;;;;23.13;11.77;;;-8.30;99.90;;;;;;5007165;28;20145;-62
2021/12/22 07:27:23;;;;;;;28.08;13.95;;;-8.30;99.90;;;;;;5007983;28;20118;-65
2021/12/22 07:29:49;;;;;;;24.80;13.80;;;-8.30;99.90;;;;;;5005400;28;20029;-62
2021/12/22 07:32:14;;;;;;;34.72;14.98;;;-8.30;99.90;;;;;;5001857;28;20034;-62
2021/12/22 07:34:51;;;;;;;31.20;14.55;;;-8.20;99.90;;;;;;5009406;28;20030;-63
2021/12/22 07:37:41;;;;;;;35.33;14.15;;;-8.20;99.90;;;;;;5009436;28;20399;-64
2021/12/22 07:40:15;;;;;;;26.33;13.60;;;-8.10;99.90;;;;;;5007057;28;20125;-62
2021/12/22 07:42:42;;;;;;;23.10;12.77;;;-7.90;99.90;;;;;;5017630;28;20030;-62
2021/12/22 07:45:09;;;;;;;25.52;13.30;;;-7.70;99.90;;;;;;5004966;28;20026;-64
2021/12/22 07:47:35;;;;;;;25.30;12.82;;;-7.40;99.90;;;;;;5005736;28;20434;-65
2021/12/22 07:50:01;;;;;;;26.25;12.38;;;-7.10;99.90;;;;;;5007158;28;20113;-62
2021/12/22 07:52:27;;;;;;;19.25;12.15;;;-6.70;99.90;;;;;;5007163;28;20029;-63
2021/12/22 07:54:56;;;;;;;16.15;10.48;;;-6.40;99.90;;;;;;5006434;28;20069;-63
2021/12/22 07:57:22;;;;;;;25.73;12.05;;;-6.10;99.90;;;;;;5007136;28;20033;-63
2021/12/22 07:59:48;;;;;;;22.23;10.98;;;-5.90;99.90;;;;;;5007735;28;20014;-62
2021/12/22 08:02:14;;;;;;;17.15;10.63;;;-5.70;99.90;;;;;;5005311;28;20073;-63
2021/12/22 08:04:43;;;;;;;18.13;10.10;;;-5.60;99.90;;;;;;5001943;28;20044;-63
2021/12/22 08:07:08;;;;;;;19.42;11.07;;;-5.40;99.90;;;;;;5004254;28;20034;-62
2021/12/22 08:09:35;;;;;;;22.50;12.50;;;-5.20;99.90;;;;;;5006661;28;20026;-66
2021/12/22 08:12:04;;;;;;;21.70;12.88;;;-5.10;99.90;;;;;;5008924;28;20013;-62
2021/12/22 08:14:35;;;;;;;25.35;14.57;;;-5.00;99.90;;;;;;5008037;28;20111;-63
2021/12/22 08:17:00;;;;;;;15.48;8.77;;;-4.80;99.90;;;;;;4996288;28;20056;-64
2021/12/22 08:19:26;;;;;;;14.90;9.70;;;-4.50;99.90;;;;;;5004872;28;20022;-63
2021/12/22 08:21:52;;;;;;;14.75;10.05;;;-4.30;99.90;;;;;;5006320;28;20030;-64
2021/12/22 08:24:18;;;;;;;26.33;10.73;;;-3.80;99.90;;;;;;5007367;28;20153;-67
2021/12/22 08:26:43;;;;;;;14.50;10.70;;;-2.90;99.90;;;;;;5007820;28;20026;-65
2021/12/22 08:29:12;;;;;;;16.77;11.07;;;-2.20;99.90;;;;;;5001991;28;20440;-63
2021/12/22 08:31:38;;;;;;;12.90;8.70;;;-1.20;99.90;;;;;;5005257;28;20029;-62
2021/12/22 08:34:04;;;;;;;12.02;9.40;;;-0.60;99.90;;;;;;5005969;28;20440;-63
2021/12/22 08:39:15;;;;;;;11.23;8.95;;;0.40;99.90;;;;;;5006248;28;20065;-63
2021/12/22 08:41:47;;;;;;;12.77;9.68;;;1.30;99.90;;;;;;5007457;28;20050;-64
2021/12/22 08:44:13;;;;;;;10.57;8.73;;;1.80;99.90;;;;;;5008038;28;20497;-65
2021/12/22 08:46:42;;;;;;;12.68;9.13;;;2.80;99.90;;;;;;5003028;28;20049;-66
2021/12/22 08:49:09;;;;;;;9.98;8.15;;;3.40;97.40;;;;;;5009132;28;20041;-62
2021/12/22 08:51:35;;;;;;;11.57;9.00;;;4.00;96.10;;;;;;5009669;28;20026;-62
2021/12/22 08:54:01;;;;;;;11.45;8.88;;;4.30;92.00;;;;;;5008809;28;20057;-62
2021/12/22 08:56:29;;;;;;;10.98;8.20;;;4.50;87.90;;;;;;5006044;28;20084;-64
2021/12/22 08:58:54;;;;;;;9.90;8.90;;;4.60;80.20;;;;;;5008098;28;20116;-62
2021/12/22 09:01:25;;;;;;;12.05;8.73;;;5.00;82.30;;;;;;5011612;28;20065;-63
2021/12/22 09:03:51;;;;;;;10.43;9.32;;;5.30;79.10;;;;;;5010892;28;20079;-63
2021/12/22 09:06:17;;;;;;;17.40;14.40;;;5.60;79.50;;;;;;5010126;28;20100;-62
2021/12/22 09:08:44;;;;;;;10.02;8.57;;;5.70;72.80;;;;;;5010476;28;20025;-63
2021/12/22 09:11:10;;;;;;;11.98;10.60;;;6.00;76.50;;;;;;5008727;28;20026;-63
2021/12/22 09:13:38;;;;;;;12.23;10.80;;;6.50;73.80;;;;;;5009146;28;20452;-63
2021/12/22 09:16:05;;;;;;;10.10;9.10;;;6.80;68.70;;;;;;5010050;28;20027;-65
2021/12/22 09:18:31;;;;;;;9.82;8.82;;;7.00;69.30;;;;;;5007070;28;20530;-63
2021/12/22 09:21:00;;;;;;;9.70;8.73;;;6.30;67.40;;;;;;5009347;28;20121;-63
2021/12/22 09:23:26;;;;;;;10.50;9.43;;;6.20;70.00;;;;;;5004277;28;20042;-63
2021/12/22 09:25:55;;;;;;;9.75;8.73;;;6.60;73.20;;;;;;5006220;28;20022;-63
2021/12/22 09:28:20;;;;;;;11.82;9.52;;;6.70;70.90;;;;;;5009837;28;20437;-65
2021/12/22 09:30:46;;;;;;;9.85;8.88;;;6.40;70.40;;;;;;5003650;28;20027;-63
2021/12/22 09:33:20;;;;;;;9.93;8.98;;;6.50;70.20;;;;;;5009319;28;20485;-63
2021/12/22 09:35:48;;;;;;;9.70;8.65;;;7.00;71.00;;;;;;5006905;28;20056;-63
2021/12/22 09:38:14;;;;;;;12.30;9.85;;;7.00;68.20;;;;;;5009922;28;20037;-63
2021/12/22 09:40:41;;;;;;;10.50;9.32;;;6.10;68.50;;;;;;5007808;28;20057;-63
2021/12/22 09:43:07;;;;;;;12.63;9.55;;;6.00;72.00;;;;;;5006981;28;20537;-63
2021/12/22 09:45:36;;;;;;;10.52;9.25;;;6.40;73.30;;;;;;5007107;28;20036;-63
2021/12/22 09:50:49;;;;;;;11.05;9.82;;;7.00;73.20;;;;;;5007950;28;20010;-64
2021/12/22 09:53:19;;;;;;;10.48;9.57;;;7.10;72.20;;;;;;5011738;28;20033;-63
2021/12/22 09:55:45;;;;;;;13.63;10.38;;;7.20;72.20;;;;;;5003815;28;20038;-62
2021/12/22 09:58:11;;;;;;;11.75;10.65;;;7.10;71.80;;;;;;5008051;28;20034;-63
2021/12/22 10:00:39;;;;;;;10.77;9.73;;;6.90;75.40;;;;;;5011529;28;20034;-63
2021/12/22 10:03:07;;;;;;;10.45;9.55;;;6.90;75.10;;;;;;5004082;28;20054;-63
2021/12/22 10:05:34;;;;;;;10.52;9.63;;;6.90;73.00;;;;;;5008954;28;20119;-63
2021/12/22 10:08:39;;;;;;;11.50;10.35;;;6.70;72.80;;;;;;5022012;28;20451;-63
2021/12/22 10:11:12;;;;;;;11.63;10.18;;;6.60;76.90;;;;;;5000367;28;20026;-64
2021/12/22 10:13:41;;;;;;;12.93;11.52;;;6.80;76.00;;;;;;5006734;28;20050;-63
2021/12/22 10:16:27;;;;;;;13.32;11.32;;;6.70;76.40;;;;;;5004833;28;20026;-64
2021/12/22 10:19:25;;;;;;;10.40;9.23;;;6.80;76.30;;;;;;5009373;28;20030;-63
2021/12/22 10:22:00;;;;;;;10.02;9.02;;;6.50;80.60;;;;;;4993922;28;20441;-65
2021/12/22 10:24:41;;;;;;;10.13;9.23;;;6.60;78.50;;;;;;5008271;28;20405;-63
2021/12/22 10:27:11;;;;;;;11.07;9.98;;;6.10;83.20;;;;;;5003301;28;20068;-65
2021/12/22 10:29:37;;;;;;;10.63;9.52;;;5.90;83.30;;;;;;5007585;28;20049;-63
2021/12/22 10:32:14;;;;;;;10.27;9.20;;;5.50;84.10;;;;;;5007108;28;20058;-63
2021/12/22 10:35:00;;;;;;;10.73;9.25;;;5.60;95.30;;;;;;5007125;28;20033;-63
2021/12/22 10:37:39;;;;;;;10.80;9.73;;;5.60;92.20;;;;;;5016169;28;20030;-63
2021/12/22 10:40:22;;;;;;;11.35;8.95;;;5.70;91.80;;;;;;5008478;28;20030;-63
2021/12/22 10:42:48;;;;;;;10.15;9.15;;;5.50;91.10;;;;;;5023396;28;20085;-63
2021/12/22 10:45:15;;;;;;;10.98;9.98;;;5.50;94.80;;;;;;5011716;28;20034;-63
2021/12/22 10:50:38;;;;;;;10.25;7.95;;;5.60;94.40;;;;;;5004199;28;20045;-63
2021/12/22 10:53:05;;;;;;;10.30;9.25;;;5.50;99.90;;;;;;5008979;28;20042;-65
2021/12/22 10:55:42;;;;;;;10.00;8.98;;;5.60;99.90;;;;;;5006358;28;20037;-64
2021/12/22 10:58:27;;;;;;;8.90;8.00;;;5.80;99.90;;;;;;5006188;28;20501;-64
2021/12/22 11:01:09;;;;;;;10.68;9.70;;;5.80;98.10;;;;;;5005044;28;20034;-64
2021/12/22 11:03:49;;;;;;;9.45;8.55;;;5.70;99.90;;;;;;5019702;28;20030;-65
2021/12/22 11:06:28;;;;;;;9.68;8.77;;;5.70;99.90;;;;;;5009585;28;20033;-64
2021/12/22 11:08:57;;;;;;;10.15;9.25;;;5.60;99.90;;;;;;4996485;28;20498;-63
2021/12/22 11:11:28;;;;;;;10.35;9.38;;;5.40;99.90;;;;;;5021226;28;20034;-64
2021/12/22 11:14:01;;;;;;;;;;;5.40;99.90;;;;;;5009752;28;20034;-63
2021/12/22 11:16:28;;;;;;;11.73;9.55;;;5.20;99.90;;;;;;5008502;28;19916;-63
2021/12/22 11:18:53;;;;;;;10.63;9.55;;;5.40;99.90;;;;;;5008434;28;20030;-64
2021/12/22 11:21:30;;;;;;;9.73;8.68;;;5.50;99.90;;;;;;5007311;28;20394;-65
2021/12/22 11:23:56;;;;;;;11.57;9.85;;;5.50;99.90;;;;;;5003817;28;20077;-64
2021/12/22 11:26:22;;;;;;;11.27;9.80;;;5.50;99.90;;;;;;5007133;28;20693;-64
2021/12/22 11:28:48;;;;;;;11.52;10.30;;;5.40;99.90;;;;;;5007371;28;20038;-64
2021/12/22 11:31:14;;;;;;;12.70;9.75;;;5.20;99.90;;;;;;5009443;28;20049;-64
2021/12/22 11:33:41;;;;;;;10.05;9.13;;;5.00;99.90;;;;;;5003145;28;20033;-64
2021/12/22 11:36:08;;;;;;;13.20;10.23;;;4.80;99.90;;;;;;5006156;28;20018;-64
2021/12/22 11:38:34;;;;;;;12.82;9.25;;;4.60;99.90;;;;;;5007397;28;20037;-63
2021/12/22 11:41:11;;;;;;;11.60;9.40;;;4.60;99.90;;;;;;5010122;28;20072;-64
2021/12/22 11:43:42;;;;;;;10.65;9.50;;;4.80;99.90;;;;;;5005727;28;20026;-64
2021/12/22 11:46:09;;;;;;;9.35;8.45;;;4.80;99.90;;;;;;5007855;28;20121;-64
2021/12/22 11:48:36;;;;;;;10.13;8.35;;;5.00;99.90;;;;;;5005636;28;20049;-64
2021/12/22 11:51:20;;;;;;;10.18;9.18;;;4.90;99.90;;;;;;5011281;28;20546;-64
2021/12/22 11:54:25;;;;;;;9.75;8.38;;;4.80;99.90;;;;;;5006232;28;20046;-64
2021/12/22 11:56:53;;;;;;;9.27;8.35;;;5.00;99.90;;;;;;5008466;28;20084;-64
2021/12/22 11:59:28;;;;;;;9.60;8.55;;;5.00;99.90;;;;;;5007543;28;20115;-64
2021/12/22 12:02:16;;;;;;;12.52;9.23;;;4.90;99.90;;;;;;5005913;28;20026;-65
2021/12/22 12:04:42;;;;;;;9.27;8.15;;;4.80;99.90;;;;;;5005484;28;20033;-64
2021/12/22 12:07:08;;;;;;;9.07;8.23;;;4.90;99.90;;;;;;5000857;28;20033;-64
2021/12/22 12:09:46;;;;;;;13.35;9.35;;;4.70;99.90;;;;;;5006777;28;20034;-64
2021/12/22 12:12:48;;;;;;;9.70;8.25;;;4.60;99.90;;;;;;5007918;28;20049;-65
2021/12/22 12:16:00;;;;;;;9.15;8.18;;;4.50;99.90;;;;;;5002433;28;20053;-65
2021/12/22 12:22:21;;;;;;;9.02;8.10;;;4.20;99.90;;;;;;5007018;28;20029;-64
2021/12/22 12:24:59;;;;;;;10.02;8.40;;;4.30;99.90;;;;;;5006610;28;20069;-63
2021/12/22 12:27:42;;;;;;;9.35;8.35;;;4.30;99.90;;;;;;5002875;28;20037;-64
2021/12/22 12:30:26;;;;;;;9.85;8.60;;;4.40;99.90;;;;;;5018366;28;20049;-63
2021/12/22 12:32:53;;;;;;;10.27;9.15;;;4.30;99.90;;;;;;4984938;28;20046;-63
2021/12/22 12:35:19;;;;;;;15.73;9.18;;;4.20;99.90;;;;;;5010444;28;20096;-65
2021/12/22 12:38:03;;;;;;;10.75;8.60;;;4.20;99.90;;;;;;5023406;28;20033;-64
2021/12/22 12:41:00;;;;;;;10.35;8.77;;;4.30;99.90;;;;;;5008374;28;20121;-63
2021/12/22 12:46:35;;;;;;;10.68;8.75;;;4.80;99.90;;;;;;5011464;28;20030;-64
2021/12/22 12:49:06;;;;;;;10.43;9.32;;;4.90;99.90;;;;;;5014543;28;20034;-64
2021/12/22 12:51:36;;;;;;;10.57;9.48;;;4.60;99.90;;;;;;5009990;28;20084;-63
2021/12/22 12:54:17;;;;;;;11.13;9.00;;;4.60;99.90;;;;;;5010568;28;20137;-65
2021/12/22 12:56:54;;;;;;;9.05;8.15;;;4.60;99.90;;;;;;5009870;28;20018;-63
2021/12/22 12:59:44;;;;;;;10.05;7.40;;;4.50;99.90;;;;;;5008168;28;20026;-64
2021/12/22 13:02:18;;;;;;;9.52;8.63;;;4.50;99.90;;;;;;5008386;28;20034;-64
2021/12/22 13:04:46;;;;;;;10.25;7.20;;;4.30;99.90;;;;;;5010294;28;20033;-63
2021/12/22 13:07:18;;;;;;;10.15;8.10;;;4.20;99.90;;;;;;5008741;28;20040;-65
2021/12/22 13:09:48;;;;;;;9.82;7.50;;;3.90;99.90;;;;;;5009871;28;20037;-63
2021/12/22 13:17:48;;;;;;;10.27;7.97;;;3.80;99.90;;;;;;5010816;28;20052;-64
2021/12/22 13:20:16;;;;;;;10.63;8.25;;;3.80;99.90;;;;;;5008821;28;20471;-63
2021/12/22 13:22:47;;;;;;;10.13;7.50;;;3.90;99.90;;;;;;5009184;28;20402;-63
2021/12/22 13:25:27;;;;;;;8.82;7.45;;;4.00;99.90;;;;;;5011907;28;20037;-65